Time;durP1;ratioP1;P1;durP2;ratioP2;P2;SDS_P1;SDS_P2;PMS_P1;PMS_P2;Temp;Humidity;BMP_temperature;BMP_pressure;BME280_temperature;BME280_humidity;BME280_pressure;Samples;Min_cycle;Max_cycle;Signal;HPM_P1;HPM_P2
2022/03/01 00:00:26;;;;;;;4.10;3.60;;;-0.10;99.90;;;;;;5011792;28;20176;-66
2022/03/01 00:02:52;;;;;;;6.03;3.60;;;-0.10;99.90;;;;;;5011628;28;20191;-66
2022/03/01 00:05:17;;;;;;;3.60;3.03;;;-0.10;99.90;;;;;;5011526;28;20267;-66
2022/03/01 00:07:43;;;;;;;2.23;2.10;;;-0.10;99.90;;;;;;5011893;28;20200;-66
2022/03/01 00:10:09;;;;;;;6.97;2.67;;;-0.20;99.90;;;;;;5011662;28;20331;-66
2022/03/01 00:12:34;;;;;;;4.80;2.87;;;-0.10;99.90;;;;;;5011633;28;20211;-66
2022/03/01 00:15:00;;;;;;;5.13;3.37;;;-0.10;99.90;;;;;;5011806;28;20427;-66
2022/03/01 00:17:25;;;;;;;2.90;2.70;;;-0.10;99.90;;;;;;5012434;28;20196;-66
2022/03/01 00:19:51;;;;;;;2.80;1.77;;;-0.10;99.90;;;;;;5012416;28;20583;-66
2022/03/01 00:22:16;;;;;;;2.70;1.63;;;-0.20;99.90;;;;;;5014196;28;20212;-66
2022/03/01 00:24:42;;;;;;;4.33;3.40;;;-0.20;99.90;;;;;;5016029;28;20168;-67
2022/03/01 00:27:07;;;;;;;7.73;3.93;;;-0.20;99.90;;;;;;5020534;28;20192;-66
2022/03/01 00:29:33;;;;;;;4.67;3.50;;;-0.20;99.90;;;;;;5016454;28;20219;-66
2022/03/01 00:31:58;;;;;;;4.93;3.43;;;-0.20;99.90;;;;;;5015433;28;20685;-65
2022/03/01 00:34:24;;;;;;;2.43;2.23;;;-0.20;99.90;;;;;;5015158;28;20156;-66
2022/03/01 00:36:49;;;;;;;5.53;2.60;;;-0.20;99.90;;;;;;5015250;28;20188;-67
2022/03/01 00:39:15;;;;;;;3.43;2.70;;;-0.20;99.90;;;;;;5015254;28;20254;-67
2022/03/01 00:41:40;;;;;;;2.90;2.60;;;-0.20;99.90;;;;;;5015098;28;20199;-66
2022/03/01 00:44:06;;;;;;;3.13;2.37;;;-0.20;99.90;;;;;;5015238;28;20165;-66
2022/03/01 00:46:31;;;;;;;2.47;2.30;;;-0.20;99.90;;;;;;5015030;28;20191;-66
2022/03/01 00:48:58;;;;;;;4.43;3.73;;;-0.20;99.90;;;;;;5014736;28;20176;-66
2022/03/01 00:51:25;;;;;;;2.17;1.97;;;-0.20;99.90;;;;;;5014982;28;20173;-67
2022/03/01 00:53:51;;;;;;;3.47;3.17;;;-0.30;99.90;;;;;;5014891;28;20771;-66
2022/03/01 00:56:16;;;;;;;5.80;3.73;;;-0.30;99.90;;;;;;5014607;28;20457;-66
2022/03/01 00:58:42;;;;;;;3.27;3.00;;;-0.30;99.90;;;;;;5015030;28;20242;-66
2022/03/01 01:01:08;;;;;;;6.53;3.93;;;-0.30;99.90;;;;;;5014950;28;20180;-67
2022/03/01 01:03:33;;;;;;;7.80;4.30;;;-0.30;99.90;;;;;;5014685;28;20231;-67
2022/03/01 01:05:59;;;;;;;3.20;2.83;;;-0.40;99.90;;;;;;5014453;28;20207;-67
2022/03/01 01:08:24;;;;;;;3.23;2.50;;;-0.40;99.90;;;;;;5014641;28;20192;-66
2022/03/01 01:10:50;;;;;;;4.27;3.87;;;-0.40;99.90;;;;;;5014586;28;20204;-66
2022/03/01 01:13:16;;;;;;;2.80;2.60;;;-0.40;99.90;;;;;;5014903;28;20681;-66
2022/03/01 01:15:43;;;;;;;4.63;4.23;;;-0.40;99.90;;;;;;5014303;28;20600;-67
2022/03/01 01:18:09;;;;;;;4.50;2.93;;;-0.40;99.90;;;;;;5014548;28;20801;-66
2022/03/01 01:20:35;;;;;;;13.50;2.43;;;-0.40;99.90;;;;;;5014444;28;20434;-66
2022/03/01 01:23:00;;;;;;;5.67;3.80;;;-0.40;99.90;;;;;;5014565;28;20431;-66
2022/03/01 01:25:26;;;;;;;3.03;2.80;;;-0.40;99.90;;;;;;5014796;28;20176;-66
2022/03/01 01:27:55;;;;;;;5.20;3.60;;;-0.50;99.90;;;;;;5014449;28;20184;-67
2022/03/01 01:30:26;;;;;;;4.97;3.00;;;-0.50;99.90;;;;;;5014264;28;20204;-66
2022/03/01 01:32:52;;;;;;;13.80;3.37;;;-0.50;99.90;;;;;;5014241;28;20808;-66
2022/03/01 01:35:20;;;;;;;2.13;2.03;;;-0.50;99.90;;;;;;5014253;28;20414;-66
2022/03/01 01:37:47;;;;;;;4.13;3.77;;;-0.50;99.90;;;;;;5014119;28;20429;-67
2022/03/01 01:40:16;;;;;;;6.23;4.73;;;-0.50;99.90;;;;;;5014255;28;20418;-67
2022/03/01 01:42:42;;;;;;;3.37;2.93;;;-0.60;99.90;;;;;;5014469;28;20415;-67
2022/03/01 01:45:08;;;;;;;4.00;2.73;;;-0.60;99.90;;;;;;5014131;28;20423;-67
2022/03/01 01:47:34;;;;;;;2.33;2.13;;;-0.50;99.90;;;;;;5014098;28;20442;-66
2022/03/01 01:50:00;;;;;;;6.97;5.80;;;-0.60;99.90;;;;;;5014092;28;20837;-67
2022/03/01 01:52:26;;;;;;;3.07;2.80;;;-0.60;99.90;;;;;;5014199;28;20406;-66
2022/03/01 01:54:53;;;;;;;4.17;2.47;;;-0.60;99.90;;;;;;5014513;28;20169;-67
2022/03/01 01:57:20;;;;;;;5.13;3.70;;;-0.60;99.90;;;;;;5014319;28;20967;-67
2022/03/01 01:59:48;;;;;;;4.00;3.60;;;-0.60;99.90;;;;;;5013993;28;20956;-67
2022/03/01 02:02:16;;;;;;;4.50;2.37;;;-0.70;99.90;;;;;;5014063;28;20418;-67
2022/03/01 02:04:42;;;;;;;3.10;2.90;;;-0.70;99.90;;;;;;5013716;28;20422;-68
2022/03/01 02:07:09;;;;;;;2.33;2.23;;;-0.70;99.90;;;;;;5013535;28;20450;-67
2022/03/01 02:09:34;;;;;;;5.67;3.97;;;-0.70;99.90;;;;;;5013613;28;20455;-67
2022/03/01 02:12:02;;;;;;;2.23;2.13;;;-0.70;99.90;;;;;;5013760;28;20935;-67
2022/03/01 02:14:29;;;;;;;3.60;2.30;;;-0.80;99.90;;;;;;5013477;28;20680;-66
2022/03/01 02:16:55;;;;;;;5.40;3.57;;;-0.80;99.90;;;;;;5013580;28;20524;-68
2022/03/01 02:19:20;;;;;;;5.20;2.70;;;-0.80;99.90;;;;;;5012531;28;20498;-67
2022/03/01 02:21:50;;;;;;;4.87;3.30;;;-0.80;99.90;;;;;;5013662;28;20198;-68
2022/03/01 02:24:17;;;;;;;7.83;5.30;;;-0.80;99.90;;;;;;5013875;28;20220;-68
2022/03/01 02:26:43;;;;;;;4.20;3.43;;;-0.80;99.90;;;;;;5013570;28;20427;-67
2022/03/01 02:29:09;;;;;;;5.87;4.40;;;-0.80;99.90;;;;;;5013568;28;20415;-67
2022/03/01 02:31:34;;;;;;;4.13;3.00;;;-0.80;99.90;;;;;;5013975;28;20172;-67
2022/03/01 02:34:00;;;;;;;5.57;2.80;;;-0.80;99.90;;;;;;5014375;28;20938;-68
2022/03/01 02:36:26;;;;;;;3.43;2.80;;;-0.90;99.90;;;;;;5013861;28;20192;-67
2022/03/01 02:38:51;;;;;;;3.30;3.07;;;-0.90;99.90;;;;;;5014295;28;20769;-68
2022/03/01 02:41:17;;;;;;;3.07;2.53;;;-0.90;99.90;;;;;;5013224;28;20172;-67
2022/03/01 02:43:42;;;;;;;3.10;2.90;;;-0.90;99.90;;;;;;5013192;28;20184;-67
2022/03/01 02:46:08;;;;;;;2.63;2.43;;;-0.90;99.90;;;;;;5013076;28;20267;-68
2022/03/01 02:48:34;;;;;;;4.50;2.90;;;-1.00;99.90;;;;;;5012558;28;20187;-68
2022/03/01 02:50:59;;;;;;;8.53;4.40;;;-1.00;99.90;;;;;;5012816;28;20454;-67
2022/03/01 02:53:25;;;;;;;2.63;2.43;;;-1.00;99.90;;;;;;5012670;28;20195;-68
2022/03/01 02:55:50;;;;;;;2.27;2.17;;;-1.00;99.90;;;;;;5012802;28;20643;-67
2022/03/01 02:58:16;;;;;;;4.13;3.83;;;-0.90;99.90;;;;;;5012651;28;20242;-67
2022/03/01 03:00:44;;;;;;;7.77;4.40;;;-0.90;99.90;;;;;;5012942;28;20165;-67
2022/03/01 03:03:13;;;;;;;2.90;2.67;;;-1.00;99.90;;;;;;5012868;28;20281;-67
2022/03/01 03:05:38;;;;;;;3.97;3.53;;;-1.00;99.90;;;;;;5012397;28;20464;-67
2022/03/01 03:08:04;;;;;;;3.37;3.17;;;-1.00;99.90;;;;;;5012728;28;20913;-68
2022/03/01 03:10:32;;;;;;;1.97;1.87;;;-1.00;99.90;;;;;;5012737;28;20196;-68
2022/03/01 03:12:58;;;;;;;7.57;3.47;;;-1.00;99.90;;;;;;5013003;28;20180;-67
2022/03/01 03:15:23;;;;;;;3.60;3.27;;;-1.00;99.90;;;;;;5012178;28;20843;-67
2022/03/01 03:17:49;;;;;;;2.90;1.57;;;-1.00;99.90;;;;;;5012465;28;20187;-66
2022/03/01 03:20:14;;;;;;;2.20;2.10;;;-1.10;99.90;;;;;;5012889;28;20195;-67
2022/03/01 03:22:40;;;;;;;2.27;2.07;;;-1.10;99.90;;;;;;5012240;28;20598;-67
2022/03/01 03:25:06;;;;;;;5.80;4.07;;;-1.10;99.90;;;;;;5012535;28;20199;-67
2022/03/01 03:27:31;;;;;;;3.00;2.80;;;-1.10;99.90;;;;;;5012399;28;20654;-67
2022/03/01 03:29:57;;;;;;;3.77;2.63;;;-1.10;99.90;;;;;;5012281;28;20450;-67
2022/03/01 03:32:22;;;;;;;4.33;2.63;;;-1.10;99.90;;;;;;5012183;28;20204;-67
2022/03/01 03:34:48;;;;;;;3.67;3.47;;;-1.10;99.90;;;;;;5012022;28;20182;-67
2022/03/01 03:37:14;;;;;;;4.80;3.40;;;-1.10;99.90;;;;;;5011898;28;20188;-67
2022/03/01 03:39:39;;;;;;;3.60;3.40;;;-1.10;99.90;;;;;;5012068;28;20627;-67
2022/03/01 03:42:04;;;;;;;2.57;2.40;;;-1.10;99.90;;;;;;5011939;28;20176;-67
2022/03/01 03:44:30;;;;;;;5.10;3.50;;;-1.10;99.90;;;;;;5011943;28;20541;-67
2022/03/01 03:46:56;;;;;;;2.90;2.27;;;-1.10;99.90;;;;;;5011704;28;20196;-66
2022/03/01 03:49:22;;;;;;;3.83;2.63;;;-1.10;99.90;;;;;;5011714;28;20203;-67
2022/03/01 03:51:48;;;;;;;2.57;2.47;;;-1.10;99.90;;;;;;5011620;28;20399;-67
2022/03/01 03:54:14;;;;;;;2.87;2.67;;;-1.10;99.90;;;;;;5011815;28;20408;-67
2022/03/01 03:56:40;;;;;;;4.13;3.73;;;-1.10;99.90;;;;;;5011577;28;20443;-67
2022/03/01 03:59:07;;;;;;;2.77;2.17;;;-1.20;99.90;;;;;;5011450;28;20179;-67
2022/03/01 04:01:33;;;;;;;11.80;2.80;;;-1.20;99.90;;;;;;5011283;28;20693;-67
2022/03/01 04:04:00;;;;;;;5.97;2.47;;;-1.20;99.90;;;;;;5011806;28;20874;-68
2022/03/01 04:06:26;;;;;;;3.73;3.03;;;-1.20;99.90;;;;;;5011487;28;20996;-68
2022/03/01 04:08:51;;;;;;;3.53;3.20;;;-1.20;99.90;;;;;;5011851;28;20485;-67
2022/03/01 04:11:17;;;;;;;3.83;3.47;;;-1.20;99.90;;;;;;5012117;28;20200;-67
2022/03/01 04:13:42;;;;;;;3.20;2.50;;;-1.20;99.90;;;;;;5011808;28;20200;-67
2022/03/01 04:16:08;;;;;;;3.23;2.20;;;-1.20;99.90;;;;;;5012042;28;20188;-67
2022/03/01 04:18:33;;;;;;;6.10;3.80;;;-1.20;99.90;;;;;;5014652;28;20654;-67
2022/03/01 04:20:59;;;;;;;8.87;4.33;;;-1.20;99.90;;;;;;5014857;28;20256;-67
2022/03/01 04:23:24;;;;;;;2.77;2.57;;;-1.20;99.90;;;;;;5012555;28;20188;-67
2022/03/01 04:25:50;;;;;;;11.00;3.40;;;-1.30;99.90;;;;;;5011518;28;20654;-67
2022/03/01 04:28:15;;;;;;;4.03;3.67;;;-1.20;99.90;;;;;;5011661;28;20646;-67
2022/03/01 04:30:41;;;;;;;3.50;3.20;;;-1.30;99.90;;;;;;5011038;28;20200;-67
2022/03/01 04:33:06;;;;;;;4.10;2.43;;;-1.20;99.90;;;;;;5011327;28;20647;-67
2022/03/01 04:35:32;;;;;;;4.47;3.93;;;-1.20;99.90;;;;;;5010477;28;20179;-67
2022/03/01 04:37:57;;;;;;;6.67;2.93;;;-1.30;99.90;;;;;;5009377;28;20654;-67
2022/03/01 04:40:23;;;;;;;3.53;3.30;;;-1.30;99.90;;;;;;5011036;28;20226;-67
2022/03/01 04:42:49;;;;;;;3.73;3.33;;;-1.40;99.90;;;;;;5011297;28;20526;-67
2022/03/01 04:45:16;;;;;;;5.40;3.20;;;-1.30;99.90;;;;;;5011009;28;20184;-67
2022/03/01 04:47:42;;;;;;;4.40;3.00;;;-1.30;99.90;;;;;;5011162;28;20819;-68
2022/03/01 04:50:08;;;;;;;6.17;3.83;;;-1.30;99.90;;;;;;5010986;28;20466;-68
2022/03/01 04:52:33;;;;;;;3.33;3.03;;;-1.30;99.90;;;;;;5011071;28;20234;-67
2022/03/01 04:54:59;;;;;;;3.93;2.60;;;-1.30;99.90;;;;;;5010926;28;20172;-67
2022/03/01 04:57:24;;;;;;;2.40;2.17;;;-1.30;99.90;;;;;;5010971;28;20510;-68
2022/03/01 04:59:50;;;;;;;3.23;2.60;;;-1.30;99.90;;;;;;5011168;28;20172;-67
2022/03/01 05:02:15;;;;;;;5.33;3.10;;;-1.30;99.90;;;;;;5010917;28;20483;-67
2022/03/01 05:04:41;;;;;;;3.50;3.20;;;-1.30;99.90;;;;;;5010832;28;20172;-67
2022/03/01 05:07:06;;;;;;;1.73;1.63;;;-1.40;99.90;;;;;;5010875;28;20610;-67
2022/03/01 05:09:33;;;;;;;5.90;3.70;;;-1.40;99.90;;;;;;5010904;28;20199;-67
2022/03/01 05:11:59;;;;;;;4.30;4.00;;;-1.40;99.90;;;;;;5012734;28;20171;-68
2022/03/01 05:14:24;;;;;;;3.87;2.10;;;-1.40;99.90;;;;;;5014634;28;20399;-68
2022/03/01 05:16:50;;;;;;;5.77;3.60;;;-1.30;99.90;;;;;;5014512;28;20188;-67
2022/03/01 05:19:15;;;;;;;9.93;3.37;;;-1.30;99.90;;;;;;5014399;28;20545;-66
2022/03/01 05:21:42;;;;;;;2.30;2.20;;;-1.30;99.90;;;;;;5014389;28;20250;-67
2022/03/01 05:24:07;;;;;;;3.40;3.10;;;-1.30;99.90;;;;;;5014704;28;20175;-67
2022/03/01 05:26:33;;;;;;;3.63;2.60;;;-1.30;99.90;;;;;;5014311;28;20419;-68
2022/03/01 05:28:59;;;;;;;3.77;2.90;;;-1.30;99.90;;;;;;5014581;28;20223;-67
2022/03/01 05:31:25;;;;;;;8.13;4.80;;;-1.30;99.90;;;;;;5014578;28;20185;-67
2022/03/01 05:33:52;;;;;;;3.57;3.37;;;-1.30;99.90;;;;;;5014532;28;20410;-68
2022/03/01 05:36:18;;;;;;;4.57;4.10;;;-1.40;99.90;;;;;;5014677;28;20514;-68
2022/03/01 05:38:44;;;;;;;5.43;4.23;;;-1.40;99.90;;;;;;5006536;28;20990;-66
2022/03/01 05:41:09;;;;;;;4.83;4.43;;;-1.40;99.90;;;;;;4994761;28;20420;-69
2022/03/01 05:43:36;;;;;;;5.47;4.43;;;-1.40;99.90;;;;;;4994683;28;20183;-68
2022/03/01 05:46:02;;;;;;;3.63;2.43;;;-1.40;99.90;;;;;;4994426;28;20227;-68
2022/03/01 05:48:28;;;;;;;3.93;3.23;;;-1.30;99.90;;;;;;4994318;28;20487;-69
2022/03/01 05:50:55;;;;;;;3.70;2.40;;;-1.30;99.90;;;;;;4994495;28;20567;-68
2022/03/01 05:53:20;;;;;;;4.60;4.20;;;-1.40;99.90;;;;;;4994473;28;20475;-68
2022/03/01 05:55:46;;;;;;;7.43;3.20;;;-1.30;99.90;;;;;;4994705;28;20427;-67
2022/03/01 05:58:11;;;;;;;1.80;1.70;;;-1.30;99.90;;;;;;4994617;28;20721;-67
2022/03/01 06:00:37;;;;;;;4.70;3.50;;;-1.40;99.90;;;;;;4994122;28;20227;-68
2022/03/01 06:03:03;;;;;;;7.30;3.87;;;-1.40;99.90;;;;;;4994167;28;20668;-68
2022/03/01 06:05:29;;;;;;;6.73;5.57;;;-1.30;99.90;;;;;;4994008;28;20420;-67
2022/03/01 06:07:55;;;;;;;2.97;2.67;;;-1.30;99.90;;;;;;4994130;28;20420;-67
2022/03/01 06:10:22;;;;;;;4.20;3.90;;;-1.30;99.90;;;;;;4994096;28;20209;-68
2022/03/01 06:12:47;;;;;;;2.87;2.43;;;-1.30;99.90;;;;;;4994011;28;20487;-67
2022/03/01 06:15:13;;;;;;;6.30;2.33;;;-1.30;99.90;;;;;;4976756;28;20946;-67
2022/03/01 06:17:39;;;;;;;4.40;2.70;;;-1.20;99.90;;;;;;4994396;28;20193;-68
2022/03/01 06:20:06;;;;;;;2.07;1.97;;;-1.20;99.90;;;;;;4994508;28;20515;-67
2022/03/01 06:22:32;;;;;;;5.77;4.60;;;-1.20;99.90;;;;;;4993212;28;21034;-68
2022/03/01 06:24:58;;;;;;;3.53;3.20;;;-1.20;99.90;;;;;;4994178;28;20535;-67
2022/03/01 06:27:24;;;;;;;3.50;3.10;;;-1.10;99.90;;;;;;4994367;28;20937;-68
2022/03/01 06:29:49;;;;;;;2.97;2.77;;;-1.10;99.90;;;;;;4994514;28;20456;-67
2022/03/01 06:32:14;;;;;;;3.10;2.80;;;-1.10;99.90;;;;;;4994037;28;20177;-67
2022/03/01 06:34:40;;;;;;;2.50;2.23;;;-1.10;99.90;;;;;;4993962;28;20199;-67
2022/03/01 06:37:12;;;;;;;4.67;4.30;;;-1.00;99.90;;;;;;4993600;28;20197;-67
2022/03/01 06:39:39;;;;;;;3.50;3.20;;;-1.00;99.90;;;;;;4993623;28;20215;-67
2022/03/01 06:42:04;;;;;;;3.43;3.20;;;-0.90;99.90;;;;;;4993402;28;20469;-66
2022/03/01 06:44:30;;;;;;;5.90;3.77;;;-0.90;99.90;;;;;;4993028;28;20412;-66
2022/03/01 06:46:55;;;;;;;7.90;3.10;;;-0.80;99.90;;;;;;4993066;28;20542;-67
2022/03/01 06:49:21;;;;;;;2.83;2.63;;;-0.80;99.90;;;;;;4993281;28;20177;-67
2022/03/01 06:51:46;;;;;;;2.50;2.40;;;-0.70;99.90;;;;;;4993139;28;20180;-67
2022/03/01 06:54:12;;;;;;;6.10;3.97;;;-0.60;99.90;;;;;;4993434;28;20168;-67
2022/03/01 06:56:37;;;;;;;4.00;3.60;;;-0.40;99.90;;;;;;4993230;28;20682;-67
2022/03/01 06:59:03;;;;;;;4.03;3.10;;;-0.30;99.90;;;;;;4993239;28;20180;-66
2022/03/01 07:01:28;;;;;;;7.30;5.20;;;-0.20;99.90;;;;;;4993641;28;20237;-67
2022/03/01 07:03:54;;;;;;;6.43;3.80;;;0.70;99.90;;;;;;4993686;28;20659;-66
2022/03/01 07:06:19;;;;;;;3.03;2.83;;;1.20;99.90;;;;;;4992785;28;20299;-66
2022/03/01 07:08:45;;;;;;;5.57;3.93;;;1.20;99.90;;;;;;4993009;28;20181;-66
2022/03/01 07:11:10;;;;;;;6.70;3.80;;;1.30;99.90;;;;;;4992761;28;20287;-66
2022/03/01 07:13:35;;;;;;;4.73;4.10;;;1.60;99.90;;;;;;4992837;28;20169;-66
2022/03/01 07:16:03;;;;;;;3.60;3.30;;;1.80;99.90;;;;;;4992329;28;20193;-66
2022/03/01 07:18:29;;;;;;;4.90;2.53;;;2.00;99.90;;;;;;4992934;28;20260;-66
2022/03/01 07:20:54;;;;;;;8.83;3.83;;;2.70;99.90;;;;;;4992711;28;20499;-68
2022/03/01 07:23:20;;;;;;;8.37;3.20;;;2.90;99.90;;;;;;4992487;28;20181;-66
2022/03/01 07:25:45;;;;;;;7.70;3.73;;;2.80;99.90;;;;;;4992455;28;20208;-66
2022/03/01 07:28:11;;;;;;;6.70;3.80;;;2.90;99.90;;;;;;4992490;28;20177;-67
2022/03/01 07:30:36;;;;;;;4.13;3.40;;;3.80;99.90;;;;;;4992364;28;20204;-66
2022/03/01 07:33:02;;;;;;;3.63;2.87;;;3.40;99.90;;;;;;4992493;28;20165;-66
2022/03/01 07:35:28;;;;;;;4.20;3.30;;;3.50;99.90;;;;;;4992088;28;20168;-69
2022/03/01 07:37:54;;;;;;;5.00;3.37;;;3.60;99.90;;;;;;4992754;28;20229;-68
2022/03/01 07:40:22;;;;;;;4.80;3.70;;;3.80;99.60;;;;;;4992488;28;20467;-66
2022/03/01 07:42:48;;;;;;;5.40;3.60;;;4.20;99.90;;;;;;4992321;28;20408;-66
2022/03/01 07:45:14;;;;;;;2.93;2.63;;;4.40;99.60;;;;;;4992284;28;20556;-66
2022/03/01 07:47:40;;;;;;;7.97;3.77;;;5.00;97.80;;;;;;4992120;28;20990;-67
2022/03/01 07:50:07;;;;;;;5.83;3.17;;;4.60;97.60;;;;;;4992271;28;20585;-66
2022/03/01 07:52:32;;;;;;;5.23;3.43;;;5.00;97.20;;;;;;4992249;28;20654;-66
2022/03/01 07:54:58;;;;;;;4.07;3.63;;;5.30;97.30;;;;;;4992135;28;20408;-66
2022/03/01 07:57:23;;;;;;;4.67;3.07;;;5.00;95.10;;;;;;4992615;28;20205;-66
2022/03/01 07:59:49;;;;;;;9.57;3.63;;;5.20;96.20;;;;;;4991962;28;20173;-66
2022/03/01 08:02:14;;;;;;;6.60;2.97;;;5.80;96.00;;;;;;4991981;28;20588;-66
2022/03/01 08:04:41;;;;;;;4.30;3.73;;;6.00;92.90;;;;;;4991884;28;20181;-66
2022/03/01 08:07:11;;;;;;;5.00;3.00;;;7.00;92.70;;;;;;4992034;28;20663;-66
2022/03/01 08:09:38;;;;;;;5.40;3.40;;;6.70;90.50;;;;;;4992423;28;20504;-67
2022/03/01 08:12:05;;;;;;;4.33;3.73;;;6.90;91.30;;;;;;4992145;28;20416;-66
2022/03/01 08:14:31;;;;;;;5.67;2.87;;;7.30;90.90;;;;;;4992154;28;20474;-67
2022/03/01 08:16:58;;;;;;;8.60;3.93;;;6.80;88.40;;;;;;4991727;28;20436;-66
2022/03/01 08:19:23;;;;;;;4.10;3.43;;;7.00;89.60;;;;;;4992090;28;20942;-66
2022/03/01 08:21:49;;;;;;;6.60;4.10;;;6.80;89.90;;;;;;4991738;28;20400;-66
2022/03/01 08:24:15;;;;;;;4.53;2.93;;;7.40;89.40;;;;;;4991771;28;20540;-66
2022/03/01 08:26:40;;;;;;;6.20;3.63;;;6.90;90.20;;;;;;4991753;28;20583;-66
2022/03/01 08:29:06;;;;;;;3.97;2.77;;;6.30;88.80;;;;;;4991606;28;20184;-66
2022/03/01 08:31:32;;;;;;;6.00;3.80;;;6.70;87.80;;;;;;4991778;28;20196;-66
2022/03/01 08:33:59;;;;;;;5.50;3.70;;;7.20;88.90;;;;;;4991688;28;20408;-66
2022/03/01 08:36:25;;;;;;;3.77;3.20;;;7.70;86.10;;;;;;4991676;28;20703;-66
2022/03/01 08:38:51;;;;;;;5.20;3.00;;;7.80;85.40;;;;;;4991717;28;20404;-66
2022/03/01 08:41:16;;;;;;;3.47;3.13;;;6.60;88.70;;;;;;4991554;28;20419;-65
2022/03/01 08:43:42;;;;;;;4.63;3.40;;;6.10;89.20;;;;;;4991524;28;20643;-65
2022/03/01 08:46:11;;;;;;;5.47;3.27;;;6.30;90.10;;;;;;4992327;28;20189;-65
2022/03/01 08:48:37;;;;;;;4.40;2.83;;;6.60;89.70;;;;;;4995499;28;20176;-68
2022/03/01 08:51:03;;;;;;;4.90;2.50;;;7.30;87.10;;;;;;4995583;28;20542;-68
2022/03/01 08:53:29;;;;;;;3.30;3.00;;;7.80;87.60;;;;;;4995435;28;20169;-66
2022/03/01 08:55:54;;;;;;;5.30;3.50;;;8.20;87.60;;;;;;4994915;28;20430;-65
2022/03/01 08:58:20;;;;;;;4.93;4.00;;;8.20;84.00;;;;;;4995204;28;20243;-65
2022/03/01 09:00:46;;;;;;;5.13;3.93;;;7.20;83.60;;;;;;4995354;28;20546;-66
2022/03/01 09:03:11;;;;;;;5.23;3.60;;;6.20;85.50;;;;;;4995180;28;20177;-66
2022/03/01 09:05:37;;;;;;;4.17;3.67;;;5.60;90.30;;;;;;4994812;28;20907;-66
2022/03/01 09:08:04;;;;;;;4.10;3.80;;;6.60;89.50;;;;;;4995178;28;20177;-66
2022/03/01 09:10:29;;;;;;;5.00;3.67;;;6.60;87.70;;;;;;4994839;28;20459;-66
2022/03/01 09:12:57;;;;;;;5.20;3.47;;;7.60;88.00;;;;;;4995297;28;20922;-66
2022/03/01 09:15:26;;;;;;;5.43;3.60;;;8.30;83.30;;;;;;4994977;28;20404;-66
2022/03/01 09:17:51;;;;;;;4.50;3.00;;;8.10;84.40;;;;;;4994739;28;20504;-66
2022/03/01 09:20:17;;;;;;;4.33;3.77;;;7.70;81.40;;;;;;4994977;28;20506;-67
2022/03/01 09:22:43;;;;;;;3.47;2.67;;;7.40;87.00;;;;;;4994628;28;20174;-67
2022/03/01 09:25:09;;;;;;;9.20;4.27;;;8.30;83.20;;;;;;4994392;28;20416;-66
2022/03/01 09:27:35;;;;;;;6.13;4.33;;;8.10;82.10;;;;;;4994459;28;20318;-65
2022/03/01 09:30:01;;;;;;;5.53;4.93;;;8.70;82.70;;;;;;4994445;28;20681;-66
2022/03/01 09:32:26;;;;;;;6.90;4.63;;;9.50;79.40;;;;;;4994466;28;20183;-66
2022/03/01 09:34:52;;;;;;;5.47;3.73;;;9.40;78.00;;;;;;4994326;28;20203;-66
2022/03/01 09:37:18;;;;;;;4.27;3.30;;;7.80;81.10;;;;;;4994379;28;20338;-66
2022/03/01 09:39:43;;;;;;;6.50;4.17;;;7.20;81.00;;;;;;4994547;28;20547;-66
2022/03/01 09:42:09;;;;;;;8.23;4.03;;;7.10;85.00;;;;;;4994500;28;20170;-68
2022/03/01 09:44:35;;;;;;;9.17;4.27;;;6.70;84.10;;;;;;4994456;28;20180;-67
2022/03/01 09:47:02;;;;;;;3.60;3.20;;;7.30;82.90;;;;;;4994344;28;20314;-66
2022/03/01 09:49:27;;;;;;;5.30;4.77;;;7.60;81.30;;;;;;4994373;28;20425;-67
2022/03/01 09:51:53;;;;;;;4.43;3.30;;;6.30;82.30;;;;;;4994389;28;20484;-65
2022/03/01 09:54:19;;;;;;;5.37;3.77;;;5.80;84.60;;;;;;4994284;28;20263;-66
2022/03/01 09:56:44;;;;;;;6.50;4.00;;;6.80;86.50;;;;;;4995763;28;20211;-67
2022/03/01 09:59:10;;;;;;;4.47;3.77;;;7.60;81.70;;;;;;4995530;28;20253;-66
2022/03/01 10:01:35;;;;;;;5.67;5.10;;;7.00;79.90;;;;;;5000248;28;20172;-68
2022/03/01 10:04:08;;;;;;;4.80;4.03;;;6.90;82.00;;;;;;5013989;28;20176;-67
2022/03/01 10:06:43;;;;;;;6.20;4.70;;;6.20;83.20;;;;;;5013797;28;20254;-66
2022/03/01 10:09:17;;;;;;;3.77;3.03;;;6.00;83.30;;;;;;5013924;28;20407;-67
2022/03/01 10:11:44;;;;;;;5.27;3.27;;;6.40;84.90;;;;;;5013954;28;20407;-68
2022/03/01 10:14:10;;;;;;;5.83;3.77;;;6.20;82.80;;;;;;5014766;28;20407;-66
2022/03/01 10:16:38;;;;;;;5.13;4.20;;;6.10;83.80;;;;;;5015133;28;20418;-67
2022/03/01 10:19:09;;;;;;;3.80;3.50;;;6.30;83.70;;;;;;5015007;28;20400;-67
2022/03/01 10:21:35;;;;;;;5.17;3.80;;;6.10;81.40;;;;;;5015054;28;20497;-66
2022/03/01 10:24:00;;;;;;;4.20;3.77;;;6.00;81.70;;;;;;5014395;28;20846;-67
2022/03/01 10:26:28;;;;;;;3.30;2.90;;;6.00;82.30;;;;;;4997049;28;20195;-66
2022/03/01 10:28:56;;;;;;;7.10;3.80;;;5.80;82.40;;;;;;5014399;28;20168;-66
2022/03/01 10:31:27;;;;;;;7.87;4.27;;;6.00;83.80;;;;;;5012095;28;20462;-66
2022/03/01 10:33:55;;;;;;;4.40;2.83;;;5.90;84.60;;;;;;5012904;28;20411;-66
2022/03/01 10:36:26;;;;;;;4.73;3.60;;;6.00;82.60;;;;;;5006355;28;20420;-67
2022/03/01 10:39:05;;;;;;;5.37;3.30;;;5.70;81.70;;;;;;4988361;28;20407;-66
2022/03/01 10:41:32;;;;;;;3.53;2.50;;;5.90;82.10;;;;;;5014058;28;20415;-66
2022/03/01 10:43:59;;;;;;;5.67;3.37;;;6.00;83.60;;;;;;5014333;28;20411;-65
2022/03/01 10:46:27;;;;;;;3.83;2.60;;;6.00;82.10;;;;;;5013602;28;20454;-66
2022/03/01 10:49:10;;;;;;;2.97;2.77;;;6.00;81.70;;;;;;5014606;28;20411;-67
2022/03/01 10:51:53;;;;;;;4.43;2.90;;;6.00;81.30;;;;;;5013979;28;20459;-66
2022/03/01 10:54:37;;;;;;;3.27;2.83;;;5.90;82.60;;;;;;5012611;28;20442;-66
2022/03/01 10:57:10;;;;;;;6.50;3.77;;;6.10;82.30;;;;;;5012631;28;20529;-66
2022/03/01 10:59:39;;;;;;;3.00;2.70;;;6.00;83.00;;;;;;5012715;28;20514;-67
2022/03/01 11:02:06;;;;;;;5.03;3.33;;;6.10;83.30;;;;;;5012796;28;20421;-66
2022/03/01 11:04:32;;;;;;;4.30;3.20;;;6.00;84.20;;;;;;5012608;28;20415;-68
2022/03/01 11:07:01;;;;;;;3.40;2.60;;;6.00;84.30;;;;;;5012563;28;20432;-67
2022/03/01 11:09:29;;;;;;;6.20;3.30;;;5.80;83.20;;;;;;5011997;28;20422;-67
2022/03/01 11:11:55;;;;;;;3.57;3.27;;;5.80;84.20;;;;;;5012685;28;20504;-67
2022/03/01 11:14:35;;;;;;;3.87;3.57;;;6.00;84.80;;;;;;5012532;28;20944;-67
2022/03/01 11:17:11;;;;;;;3.50;3.07;;;5.80;83.20;;;;;;5012781;28;20423;-67
2022/03/01 11:19:54;;;;;;;5.17;3.47;;;6.00;83.10;;;;;;5012380;28;20434;-67
2022/03/01 11:22:39;;;;;;;4.10;3.00;;;6.10;82.30;;;;;;5012276;28;20411;-67
2022/03/01 11:25:05;;;;;;;8.43;3.73;;;6.10;82.10;;;;;;5012572;28;20917;-67
2022/03/01 11:27:41;;;;;;;4.30;3.20;;;6.20;81.80;;;;;;5012470;28;20936;-67
2022/03/01 11:30:09;;;;;;;4.07;3.20;;;6.30;81.10;;;;;;5008397;28;20446;-67
2022/03/01 11:32:42;;;;;;;3.03;2.73;;;6.40;80.40;;;;;;5012008;28;20407;-67
2022/03/01 11:35:14;;;;;;;5.80;3.40;;;6.40;80.30;;;;;;5012180;28;20404;-67
2022/03/01 11:37:44;;;;;;;4.03;2.73;;;6.30;79.30;;;;;;5011818;28;20438;-67
2022/03/01 11:40:20;;;;;;;6.30;2.53;;;6.30;78.90;;;;;;5003838;28;20408;-66
2022/03/01 11:42:48;;;;;;;3.63;3.33;;;6.40;78.70;;;;;;5012047;28;20414;-67
2022/03/01 11:45:15;;;;;;;3.40;2.27;;;6.40;78.80;;;;;;5012215;28;20415;-66
2022/03/01 11:47:40;;;;;;;2.83;2.60;;;6.50;76.60;;;;;;5012131;28;20425;-66
2022/03/01 11:50:15;;;;;;;5.53;3.50;;;6.40;76.30;;;;;;5011883;28;20443;-66
2022/03/01 11:52:53;;;;;;;4.03;2.90;;;6.60;77.70;;;;;;5011696;28;20190;-66
2022/03/01 11:55:20;;;;;;;7.50;2.67;;;6.70;77.30;;;;;;5011879;28;20553;-66
2022/03/01 11:57:45;;;;;;;2.57;2.33;;;6.70;76.60;;;;;;5011705;28;20547;-66
2022/03/01 12:00:15;;;;;;;3.03;2.60;;;6.70;77.10;;;;;;5012057;28;20415;-66
2022/03/01 12:02:45;;;;;;;8.13;3.53;;;6.90;77.00;;;;;;5011809;28;20677;-66
2022/03/01 12:05:21;;;;;;;4.60;2.53;;;7.00;76.10;;;;;;5011868;28;20406;-67
2022/03/01 12:07:46;;;;;;;3.73;2.37;;;7.00;74.00;;;;;;5011290;28;20434;-66
2022/03/01 12:10:25;;;;;;;2.30;2.10;;;7.00;73.20;;;;;;5011682;28;20451;-66
2022/03/01 12:12:54;;;;;;;3.87;2.67;;;7.00;73.20;;;;;;5011612;28;20562;-66
2022/03/01 12:15:30;;;;;;;5.03;3.20;;;6.80;73.00;;;;;;5011588;28;20399;-67
2022/03/01 12:17:58;;;;;;;3.53;3.00;;;6.90;72.80;;;;;;5011488;28;20909;-67
2022/03/01 12:20:24;;;;;;;3.73;2.87;;;7.00;73.30;;;;;;5011669;28;20498;-67
2022/03/01 12:22:58;;;;;;;6.17;2.23;;;7.20;73.10;;;;;;5015449;28;20494;-65
2022/03/01 12:25:26;;;;;;;3.57;2.40;;;7.30;71.30;;;;;;5015647;28;20187;-65
2022/03/01 12:27:52;;;;;;;3.70;2.57;;;7.10;70.20;;;;;;5019228;28;20414;-67
2022/03/01 12:30:20;;;;;;;2.43;2.20;;;7.10;70.80;;;;;;5011329;28;20455;-67
2022/03/01 12:32:58;;;;;;;3.40;2.23;;;7.20;71.90;;;;;;5015555;28;20422;-65
2022/03/01 12:35:26;;;;;;;4.53;2.57;;;7.30;72.80;;;;;;5015622;28;20649;-66
2022/03/01 12:37:51;;;;;;;2.27;2.07;;;7.40;71.60;;;;;;5015465;28;20399;-66
2022/03/01 12:40:31;;;;;;;2.27;2.07;;;7.40;70.90;;;;;;5015549;28;20419;-66
2022/03/01 12:43:04;;;;;;;7.90;3.00;;;7.60;70.60;;;;;;5015474;28;20176;-66
2022/03/01 12:45:41;;;;;;;7.60;2.70;;;7.70;70.50;;;;;;5015471;28;20442;-66
2022/03/01 12:48:09;;;;;;;6.93;2.60;;;7.60;68.00;;;;;;5015778;28;20461;-66